Time;durP1;ratioP1;P1;durP2;ratioP2;P2;SDS_P1;SDS_P2;PMS_P1;PMS_P2;Temp;Humidity;BMP_temperature;BMP_pressure;BME280_temperature;BME280_humidity;BME280_pressure;Samples;Min_cycle;Max_cycle;Signal;HPM_P1;HPM_P2
2022/04/15 00:01:21;;;;;;;;;;;6.90;99.90;;;;;;5120968;27;20086;-75
2022/04/15 00:03:47;;;;;;;4.53;2.70;;;6.90;99.90;;;;;;5099887;28;20386;-75
2022/04/15 00:06:13;;;;;;;;;;;6.90;99.90;;;;;;5127858;27;20057;-75
2022/04/15 00:08:39;;;;;;;3.45;2.22;;;6.90;99.90;;;;;;5114854;27;19924;-76
2022/04/15 00:11:05;;;;;;;;;;;6.90;99.90;;;;;;5100792;27;20051;-75
2022/04/15 00:13:32;;;;;;;4.28;2.40;;;6.90;99.90;;;;;;5101374;28;19934;-75
2022/04/15 00:15:59;;;;;;;4.32;2.38;;;6.90;99.90;;;;;;5106592;27;20458;-75
2022/04/15 00:18:25;;;;;;;3.58;2.42;;;6.90;99.90;;;;;;5113701;27;20043;-75
2022/04/15 00:20:52;;;;;;;;;;;6.80;99.90;;;;;;5125645;27;20047;-75
2022/04/15 00:23:18;;;;;;;3.50;2.50;;;6.80;99.90;;;;;;5119603;27;19934;-75
2022/04/15 00:25:44;;;;;;;3.80;2.60;;;6.80;99.90;;;;;;5115185;27;20051;-75
2022/04/15 00:28:09;;;;;;;;;;;6.80;99.90;;;;;;5107581;27;20050;-75
2022/04/15 00:30:35;;;;;;;3.55;2.28;;;6.80;99.90;;;;;;5094533;27;19923;-75
2022/04/15 00:33:00;;;;;;;;;;;6.70;99.90;;;;;;5105471;28;20186;-74
2022/04/15 00:35:26;;;;;;;3.40;2.30;;;6.70;99.90;;;;;;5120307;27;20321;-75
2022/04/15 00:37:52;;;;;;;;;;;6.70;99.90;;;;;;5098777;28;20051;-74
2022/04/15 00:40:17;;;;;;;5.30;2.17;;;6.70;99.90;;;;;;5117099;27;19920;-75
2022/04/15 00:42:43;;;;;;;;;;;6.70;99.90;;;;;;5092495;28;20044;-75
2022/04/15 00:45:09;;;;;;;3.92;2.55;;;6.70;99.90;;;;;;5075559;28;19924;-75
2022/04/15 00:47:52;;;;;;;4.93;2.53;;;6.70;99.90;;;;;;5075764;28;20051;-75
2022/04/15 00:50:29;;;;;;;3.95;2.42;;;6.70;99.90;;;;;;5093271;28;20491;-75
2022/04/15 00:52:58;;;;;;;3.42;2.33;;;6.70;99.90;;;;;;5094326;28;20482;-75
2022/04/15 00:55:25;;;;;;;3.90;2.50;;;6.70;99.90;;;;;;5075366;28;20490;-75
2022/04/15 00:57:56;;;;;;;4.90;3.05;;;6.70;99.90;;;;;;5090070;28;20052;-75
2022/04/15 01:00:24;;;;;;;4.75;2.60;;;6.80;99.90;;;;;;5114307;28;20039;-75
2022/04/15 01:02:50;;;;;;;5.00;3.13;;;6.80;99.90;;;;;;5095578;28;20051;-75
2022/04/15 01:05:17;;;;;;;4.53;3.25;;;6.90;99.90;;;;;;5114139;28;20149;-75
2022/04/15 01:07:48;;;;;;;5.65;3.50;;;7.00;99.90;;;;;;5113762;28;20040;-75
2022/04/15 01:10:15;;;;;;;4.10;3.00;;;7.10;99.90;;;;;;5113051;28;20176;-75
2022/04/15 01:12:44;;;;;;;4.35;3.03;;;7.10;99.90;;;;;;5095438;28;20043;-74
2022/04/15 01:15:13;;;;;;;4.75;2.85;;;7.20;99.90;;;;;;5095151;28;20372;-75
2022/04/15 01:17:39;;;;;;;4.20;2.90;;;7.30;99.90;;;;;;5094584;28;20119;-75
2022/04/15 01:20:08;;;;;;;4.30;2.97;;;7.30;99.90;;;;;;5113575;28;20039;-75
2022/04/15 01:22:42;;;;;;;4.47;2.90;;;7.40;99.90;;;;;;5113679;28;20130;-75
2022/04/15 01:25:10;;;;;;;3.50;2.58;;;7.50;99.90;;;;;;5112951;28;20482;-74
2022/04/15 01:27:38;;;;;;;5.47;2.97;;;7.60;99.90;;;;;;5107179;27;20127;-74
2022/04/15 01:30:05;;;;;;;4.15;2.85;;;7.60;99.90;;;;;;5134085;27;20042;-74
2022/04/15 01:32:31;;;;;;;5.68;2.70;;;7.70;99.90;;;;;;5112897;28;20043;-75
2022/04/15 01:34:57;;;;;;;;;;;7.70;99.90;;;;;;5095347;28;20059;-74
2022/04/15 01:37:23;;;;;;;6.13;3.30;;;7.80;99.90;;;;;;5112855;28;19920;-74
2022/04/15 01:39:50;;;;;;;7.72;3.33;;;7.90;99.90;;;;;;5113303;28;20047;-74
2022/04/15 01:42:16;;;;;;;6.45;3.10;;;7.90;99.90;;;;;;5093689;28;20079;-75
2022/04/15 01:44:43;;;;;;;6.43;3.47;;;7.90;99.90;;;;;;5094638;28;20043;-75
2022/04/15 01:47:10;;;;;;;5.00;2.70;;;8.00;99.90;;;;;;5113084;28;20039;-75
2022/04/15 01:49:37;;;;;;;3.70;2.50;;;8.00;99.90;;;;;;5112913;28;20518;-75
2022/04/15 01:52:04;;;;;;;5.78;2.88;;;8.00;99.90;;;;;;5094344;28;20043;-75
2022/04/15 01:54:31;;;;;;;3.72;2.20;;;8.10;99.90;;;;;;5113372;28;20063;-75
2022/04/15 01:56:57;;;;;;;3.88;2.35;;;8.10;99.90;;;;;;5128790;27;20043;-74
2022/04/15 01:59:23;;;;;;;3.53;2.20;;;8.10;99.90;;;;;;5091003;28;20036;-75
2022/04/15 02:01:54;;;;;;;5.43;3.03;;;8.10;99.90;;;;;;5093118;28;20043;-75
2022/04/15 02:04:23;;;;;;;5.07;2.67;;;8.10;99.90;;;;;;5089523;28;20035;-75
2022/04/15 02:06:49;;;;;;;7.43;2.58;;;8.20;99.90;;;;;;5112649;28;20040;-75
2022/04/15 02:09:15;;;;;;;;;;;8.20;99.90;;;;;;5095041;28;20375;-75
2022/04/15 02:11:40;;;;;;;4.97;2.72;;;8.20;99.90;;;;;;5094932;28;20064;-75
2022/04/15 02:14:06;;;;;;;;;;;8.20;99.90;;;;;;5090552;28;20052;-75
2022/04/15 02:16:32;;;;;;;4.57;2.72;;;8.20;99.90;;;;;;5074640;28;19927;-75
2022/04/15 02:18:58;;;;;;;;;;;8.20;99.90;;;;;;5076523;28;20052;-75
2022/04/15 02:21:24;;;;;;;4.93;2.05;;;8.20;99.90;;;;;;5094326;28;19922;-75
2022/04/15 02:23:49;;;;;;;;;;;8.30;99.90;;;;;;5091319;28;20040;-75
2022/04/15 02:26:15;;;;;;;4.20;2.20;;;8.30;99.90;;;;;;5092628;28;19920;-75
2022/04/15 02:28:40;;;;;;;;;;;8.30;99.90;;;;;;5074514;28;20047;-75
2022/04/15 02:31:06;;;;;;;5.35;2.40;;;8.30;99.90;;;;;;5092181;28;19930;-75
2022/04/15 02:33:31;;;;;;;;;;;8.30;99.90;;;;;;5074311;28;20055;-75
2022/04/15 02:35:57;;;;;;;4.55;2.60;;;8.30;99.90;;;;;;5073849;28;19920;-75
2022/04/15 02:38:22;;;;;;;;;;;8.30;99.90;;;;;;5092644;28;20127;-75
2022/04/15 02:40:48;;;;;;;5.07;2.33;;;8.30;99.90;;;;;;5110620;28;19923;-75
2022/04/15 02:43:13;;;;;;;;;;;8.30;99.90;;;;;;5094732;28;20119;-75
2022/04/15 02:45:39;;;;;;;4.35;2.50;;;8.30;99.90;;;;;;5112767;28;19965;-75
2022/04/15 02:48:05;;;;;;;;;;;8.30;99.90;;;;;;5112143;28;20051;-75
2022/04/15 02:50:30;;;;;;;5.35;2.80;;;8.30;99.90;;;;;;5112400;28;19967;-75
2022/04/15 02:52:58;;;;;;;;;;;8.30;99.90;;;;;;5095189;28;20046;-74
2022/04/15 02:55:24;;;;;;;5.68;2.97;;;8.30;99.90;;;;;;5116015;28;20022;-75
2022/04/15 02:57:50;;;;;;;;;;;8.30;99.90;;;;;;5098708;28;20135;-75
2022/04/15 03:00:16;;;;;;;6.10;3.10;;;8.30;99.90;;;;;;5098047;28;20354;-76
2022/04/15 03:02:41;;;;;;;;;;;8.30;99.90;;;;;;5098353;28;20043;-75
2022/04/15 03:05:09;;;;;;;9.18;3.45;;;8.40;99.90;;;;;;5115209;28;19927;-75
2022/04/15 03:07:38;;;;;;;9.48;3.50;;;8.30;99.90;;;;;;5097173;28;20387;-75
2022/04/15 03:10:06;;;;;;;7.28;3.60;;;8.30;99.90;;;;;;5093338;28;20073;-75
2022/04/15 03:12:38;;;;;;;7.35;4.30;;;8.40;99.90;;;;;;5077750;28;20048;-75
2022/04/15 03:15:06;;;;;;;6.93;3.70;;;8.30;99.90;;;;;;5077566;28;20108;-75
2022/04/15 03:17:33;;;;;;;7.90;3.42;;;8.40;99.90;;;;;;5077152;28;20078;-75
2022/04/15 03:20:02;;;;;;;5.65;3.40;;;8.30;99.90;;;;;;5085890;28;20044;-75
2022/04/15 03:22:34;;;;;;;8.88;3.83;;;8.40;99.90;;;;;;5097882;28;20046;-75
2022/04/15 03:24:59;;;;;;;6.43;3.28;;;8.40;99.90;;;;;;5097327;28;20039;-75
2022/04/15 03:27:25;;;;;;;;;;;8.40;99.90;;;;;;5116800;28;20442;-75
2022/04/15 03:29:50;;;;;;;6.10;3.90;;;8.40;99.90;;;;;;5115150;28;20367;-75
2022/04/15 03:32:16;;;;;;;;;;;8.40;99.90;;;;;;5116190;28;20055;-75
2022/04/15 03:34:41;;;;;;;8.63;3.35;;;8.40;99.90;;;;;;5097399;28;19919;-75
2022/04/15 03:37:07;;;;;;;;;;;8.40;99.90;;;;;;5097130;28;20754;-75
2022/04/15 03:39:32;;;;;;;6.90;3.10;;;8.40;99.90;;;;;;5097396;28;19927;-75
2022/04/15 03:41:58;;;;;;;;;;;8.40;99.90;;;;;;5115887;28;20040;-75
2022/04/15 03:44:23;;;;;;;5.85;2.85;;;8.40;99.90;;;;;;5115164;28;19919;-75
2022/04/15 03:46:49;;;;;;;;;;;8.30;99.90;;;;;;5097530;28;20104;-76
2022/04/15 03:49:15;;;;;;;5.53;2.60;;;8.30;99.90;;;;;;5097018;28;19931;-75
2022/04/15 03:51:43;;;;;;;;;;;8.30;99.90;;;;;;5097376;28;20044;-75
2022/04/15 03:54:09;;;;;;;3.90;2.20;;;8.30;99.90;;;;;;5096787;28;20357;-75
2022/04/15 03:56:36;;;;;;;;;;;8.30;99.90;;;;;;5116128;28;20082;-75
2022/04/15 03:59:03;;;;;;;4.88;2.08;;;8.30;99.90;;;;;;5114505;28;19919;-75
2022/04/15 04:01:29;;;;;;;4.78;2.30;;;8.30;99.90;;;;;;5097248;28;20074;-75
2022/04/15 04:03:54;;;;;;;;;;;8.30;99.90;;;;;;5093801;28;20474;-75
2022/04/15 04:06:20;;;;;;;6.88;3.03;;;8.30;99.90;;;;;;5093180;28;19927;-75
2022/04/15 04:08:49;;;;;;;;;;;8.30;99.90;;;;;;5095371;28;20078;-75
2022/04/15 04:11:19;;;;;;;9.38;4.30;;;8.30;99.90;;;;;;5094505;28;19988;-75
2022/04/15 04:13:45;;;;;;;6.80;4.10;;;8.20;99.90;;;;;;5076174;28;20101;-75
2022/04/15 04:16:11;;;;;;;;;;;8.20;99.90;;;;;;5085622;28;20482;-75
2022/04/15 04:18:38;;;;;;;8.75;4.80;;;8.30;99.90;;;;;;5096833;28;20022;-75
2022/04/15 04:21:04;;;;;;;8.82;5.47;;;8.30;99.90;;;;;;5105993;28;20165;-75
2022/04/15 04:23:29;;;;;;;;;;;8.30;99.90;;;;;;5103957;28;20093;-75
2022/04/15 04:25:55;;;;;;;10.90;6.53;;;8.30;99.90;;;;;;5098946;28;19931;-75
2022/04/15 04:28:21;;;;;;;;;;;8.30;99.90;;;;;;5114288;28;20122;-75
2022/04/15 04:30:46;;;;;;;13.05;6.85;;;8.30;99.90;;;;;;5114827;28;20290;-75
2022/04/15 04:33:12;;;;;;;;;;;8.30;99.90;;;;;;5095657;28;20079;-75
2022/04/15 04:35:38;;;;;;;13.75;7.70;;;8.30;99.90;;;;;;5096311;28;19919;-75
2022/04/15 04:38:06;;;;;;;;;;;8.30;99.90;;;;;;5095898;28;20035;-75
2022/04/15 04:40:36;;;;;;;12.88;7.93;;;8.30;99.90;;;;;;5095707;28;20032;-75
2022/04/15 04:43:03;;;;;;;15.38;7.70;;;8.30;99.90;;;;;;5095929;28;20459;-76
2022/04/15 04:45:29;;;;;;;12.43;7.40;;;8.30;99.90;;;;;;5114473;28;20062;-76
2022/04/15 04:47:55;;;;;;;;;;;8.30;99.90;;;;;;5114076;28;20386;-75
2022/04/15 04:50:21;;;;;;;10.23;6.90;;;8.30;99.90;;;;;;5114013;28;19920;-76
2022/04/15 04:52:47;;;;;;;;;;;8.30;99.90;;;;;;5096324;28;20054;-75
2022/04/15 04:55:13;;;;;;;11.25;6.60;;;8.30;99.90;;;;;;5113312;28;20002;-75
2022/04/15 04:57:42;;;;;;;10.48;5.97;;;8.30;99.90;;;;;;5093492;28;20144;-75
2022/04/15 05:00:09;;;;;;;10.30;4.80;;;8.20;99.90;;;;;;5094908;28;20052;-75
2022/04/15 05:02:34;;;;;;;7.65;4.88;;;8.30;99.90;;;;;;5112663;28;20042;-79
2022/04/15 05:05:00;;;;;;;;;;;8.20;99.90;;;;;;5113813;28;20035;-79
2022/04/15 05:07:26;;;;;;;9.45;4.50;;;8.20;99.90;;;;;;5113114;28;20388;-81
2022/04/15 05:09:52;;;;;;;;;;;8.20;99.90;;;;;;5094821;28;20515;-75
2022/04/15 05:12:17;;;;;;;5.55;3.50;;;8.20;99.90;;;;;;5094871;28;19935;-76
2022/04/15 05:14:43;;;;;;;;;;;8.20;99.90;;;;;;5113895;28;20164;-75
2022/04/15 05:17:09;;;;;;;5.72;3.50;;;8.20;99.90;;;;;;5112188;28;20003;-76
2022/04/15 05:19:34;;;;;;;;;;;8.20;99.90;;;;;;5095051;28;20119;-77
2022/04/15 05:22:00;;;;;;;6.38;3.35;;;8.20;99.90;;;;;;5112316;28;19924;-77
2022/04/15 05:24:28;;;;;;;5.30;3.30;;;8.10;99.90;;;;;;5091245;28;20044;-77
2022/04/15 05:26:53;;;;;;;;;;;8.10;99.90;;;;;;5096000;28;20040;-76
2022/04/15 05:29:22;;;;;;;4.63;2.78;;;8.10;99.90;;;;;;5107353;27;19920;-76
2022/04/15 05:31:47;;;;;;;4.72;3.42;;;8.00;99.90;;;;;;5129615;27;20040;-75
2022/04/15 05:34:13;;;;;;;;;;;8.00;99.90;;;;;;5102356;27;20100;-76
2022/04/15 05:36:38;;;;;;;4.82;3.05;;;8.30;99.90;;;;;;5114928;27;19919;-76
2022/04/15 05:39:04;;;;;;;;;;;8.00;99.90;;;;;;5115595;27;20043;-77
2022/04/15 05:41:29;;;;;;;4.68;3.50;;;8.00;99.90;;;;;;5113757;27;20002;-73
2022/04/15 05:43:57;;;;;;;;;;;8.00;99.90;;;;;;5113186;28;20048;-75
2022/04/15 05:46:23;;;;;;;;;;;8.00;99.90;;;;;;5114054;28;19915;-73
2022/04/15 05:48:48;;;;;;;4.85;3.10;;;8.00;99.90;;;;;;5113463;28;19972;-73
2022/04/15 05:51:14;;;;;;;;;;;8.00;99.90;;;;;;5113010;28;20043;-72
2022/04/15 05:53:42;;;;;;;3.78;2.67;;;8.10;99.90;;;;;;5113215;28;20363;-73
2022/04/15 05:56:08;;;;;;;;;;;8.10;99.90;;;;;;5090530;28;20051;-73
2022/04/15 05:58:33;;;;;;;3.50;2.45;;;8.20;99.90;;;;;;5100429;28;19955;-73
2022/04/15 06:00:59;;;;;;;;;;;8.20;99.90;;;;;;5094730;28;20069;-72
2022/04/15 06:03:24;;;;;;;4.30;2.95;;;8.30;99.90;;;;;;5112945;28;20006;-75
2022/04/15 06:05:50;;;;;;;;;;;8.30;99.90;;;;;;5097902;28;20040;-73
2022/04/15 06:08:16;;;;;;;3.75;2.60;;;8.30;99.90;;;;;;5092697;28;19916;-76
2022/04/15 06:10:42;;;;;;;5.78;2.72;;;8.40;99.90;;;;;;5092316;28;20368;-76
2022/04/15 06:13:13;;;;;;;;;;;8.50;99.90;;;;;;5090418;28;20044;-74
2022/04/15 06:15:41;;;;;;;3.38;2.20;;;8.50;99.90;;;;;;5112676;28;19919;-74
2022/04/15 06:18:08;;;;;;;3.38;2.10;;;8.50;99.90;;;;;;5092191;28;20047;-74
2022/04/15 06:20:34;;;;;;;2.47;1.60;;;8.50;99.90;;;;;;5092973;28;20044;-75
2022/04/15 06:23:00;;;;;;;4.13;1.90;;;8.50;99.90;;;;;;5111871;28;20058;-74
2022/04/15 06:25:26;;;;;;;;;;;8.60;99.90;;;;;;5094937;28;20122;-73
2022/04/15 06:27:54;;;;;;;3.40;2.40;;;8.60;99.90;;;;;;5092245;28;19924;-74
2022/04/15 06:30:21;;;;;;;5.05;2.90;;;8.60;99.90;;;;;;5115939;28;20058;-74
2022/04/15 06:32:47;;;;;;;5.38;3.00;;;8.60;99.90;;;;;;5095863;28;20073;-72
2022/04/15 06:35:13;;;;;;;4.70;3.13;;;8.60;99.90;;;;;;5076437;28;20097;-74
2022/04/15 06:37:38;;;;;;;;;;;8.50;99.90;;;;;;5071780;28;20045;-74
2022/04/15 06:40:05;;;;;;;4.28;2.83;;;8.50;99.90;;;;;;5069820;28;19935;-74
2022/04/15 06:42:30;;;;;;;4.43;2.70;;;8.50;99.90;;;;;;5073259;28;20059;-74
2022/04/15 06:44:57;;;;;;;;;;;8.50;99.90;;;;;;5075179;28;20475;-73
2022/04/15 06:47:22;;;;;;;5.15;3.40;;;8.40;99.90;;;;;;5075541;28;20012;-74
2022/04/15 06:49:48;;;;;;;;;;;8.40;99.90;;;;;;5076510;28;20115;-74
2022/04/15 06:52:15;;;;;;;5.45;3.78;;;8.40;99.90;;;;;;5075821;28;19966;-74
2022/04/15 06:54:41;;;;;;;6.65;4.40;;;8.40;99.90;;;;;;5086225;28;20505;-74
2022/04/15 06:57:07;;;;;;;8.15;4.50;;;8.50;99.90;;;;;;5077465;28;20127;-74
2022/04/15 06:59:33;;;;;;;;;;;8.50;99.90;;;;;;5078474;28;20562;-74
2022/04/15 07:01:59;;;;;;;7.93;4.57;;;8.50;99.90;;;;;;5077069;28;19971;-74
2022/04/15 07:04:26;;;;;;;7.85;4.72;;;8.60;99.90;;;;;;5076442;28;20048;-75
2022/04/15 07:06:51;;;;;;;8.18;5.40;;;8.60;99.90;;;;;;5077871;28;20070;-75
2022/04/15 07:09:17;;;;;;;;;;;8.60;99.90;;;;;;5093638;28;20048;-74
2022/04/15 07:11:42;;;;;;;9.70;5.68;;;8.70;99.90;;;;;;5066235;28;19927;-74
2022/04/15 07:14:08;;;;;;;;;;;8.70;99.90;;;;;;5085812;28;20482;-75
2022/04/15 07:16:36;;;;;;;8.50;5.72;;;8.70;99.90;;;;;;5078166;28;19920;-75
2022/04/15 07:19:07;;;;;;;10.73;6.50;;;8.70;99.90;;;;;;5086006;28;20081;-75
2022/04/15 07:21:37;;;;;;;11.95;7.15;;;8.80;99.90;;;;;;5068788;28;20126;-76
2022/04/15 07:24:04;;;;;;;8.98;6.63;;;8.80;99.90;;;;;;5079278;28;20036;-76
2022/04/15 07:26:30;;;;;;;10.20;6.68;;;8.80;99.90;;;;;;5070697;28;20036;-75
2022/04/15 07:28:56;;;;;;;10.18;6.15;;;8.80;99.90;;;;;;5076609;28;20166;-74
2022/04/15 07:31:22;;;;;;;;;;;8.80;99.90;;;;;;5095698;28;20082;-75
2022/04/15 07:33:48;;;;;;;9.57;6.53;;;8.80;99.90;;;;;;5094896;28;19930;-75
2022/04/15 07:38:59;;;;;;;14.05;7.28;;;8.90;99.90;;;;;;5074528;28;20394;-78
2022/04/15 07:41:25;;;;;;;12.70;7.35;;;9.00;99.90;;;;;;5091088;28;20043;-78
2022/04/15 07:43:50;;;;;;;;;;;9.00;99.90;;;;;;5097483;28;20478;-75
2022/04/15 07:46:16;;;;;;;13.05;7.32;;;9.00;99.90;;;;;;5107406;28;19935;-74
2022/04/15 07:48:42;;;;;;;;;;;9.10;99.90;;;;;;5087271;28;20484;-74
2022/04/15 07:51:09;;;;;;;14.45;7.03;;;9.10;99.90;;;;;;5081428;28;19920;-73
2022/04/15 07:53:35;;;;;;;12.95;7.80;;;9.20;99.90;;;;;;5080506;28;20043;-73
2022/04/15 07:56:01;;;;;;;12.95;7.15;;;9.40;99.90;;;;;;5097650;28;20044;-74
2022/04/15 07:58:27;;;;;;;9.52;6.53;;;9.80;99.90;;;;;;5094945;28;20065;-74
2022/04/15 08:00:53;;;;;;;;;;;10.30;99.90;;;;;;5093302;28;20145;-75
2022/04/15 08:03:20;;;;;;;11.77;7.30;;;11.20;99.90;;;;;;5094776;28;20010;-74
2022/04/15 08:05:47;;;;;;;11.32;6.95;;;11.90;99.90;;;;;;5098088;28;20040;-74
2022/04/15 08:08:13;;;;;;;11.55;7.22;;;12.70;99.90;;;;;;5095028;28;20494;-78
2022/04/15 08:10:38;;;;;;;;;;;13.50;99.90;;;;;;5076565;28;20055;-77
2022/04/15 08:13:04;;;;;;;10.60;6.63;;;14.60;99.90;;;;;;5088836;28;20362;-75
2022/04/15 08:15:30;;;;;;;14.00;7.05;;;15.10;99.90;;;;;;5097383;28;20043;-74
2022/04/15 08:18:14;;;;;;;9.57;6.72;;;15.20;99.90;;;;;;5092574;28;20035;-75
2022/04/15 08:20:46;;;;;;;10.63;6.43;;;15.00;99.90;;;;;;5075650;28;20100;-79
2022/04/15 08:23:15;;;;;;;10.07;5.88;;;14.90;99.90;;;;;;5075337;28;20044;-79
2022/04/15 08:25:43;;;;;;;10.45;5.97;;;15.30;99.90;;;;;;5074264;28;20044;-76
2022/04/15 08:28:08;;;;;;;8.38;5.72;;;15.30;99.90;;;;;;5093629;28;20114;-77
2022/04/15 08:30:34;;;;;;;9.20;5.60;;;15.60;99.90;;;;;;5072608;28;20536;-79
2022/04/15 08:33:02;;;;;;;9.93;5.95;;;15.60;99.90;;;;;;5076834;28;20058;-80
2022/04/15 08:35:33;;;;;;;12.10;5.63;;;15.40;99.90;;;;;;5072257;28;20048;-77
2022/04/15 08:37:59;;;;;;;8.93;5.03;;;15.00;99.90;;;;;;5076093;28;20043;-79
2022/04/15 08:40:27;;;;;;;8.25;4.90;;;14.50;99.90;;;;;;5074016;28;20463;-77
2022/04/15 08:42:53;;;;;;;9.25;4.90;;;14.20;99.90;;;;;;5107558;28;20095;-76
2022/04/15 08:45:25;;;;;;;7.78;4.47;;;13.80;99.90;;;;;;5075470;28;20047;-82
2022/04/15 08:47:57;;;;;;;9.82;4.60;;;13.60;99.90;;;;;;5071522;28;20109;-81
2022/04/15 08:50:23;;;;;;;8.25;4.32;;;13.50;99.90;;;;;;5092245;28;20032;-76
2022/04/15 08:52:52;;;;;;;6.80;4.25;;;13.20;99.90;;;;;;5092597;28;20043;-79
2022/04/15 08:55:21;;;;;;;11.63;4.38;;;13.30;99.90;;;;;;5071543;28;20036;-81
2022/04/15 08:57:47;;;;;;;8.38;4.57;;;13.30;99.90;;;;;;5074684;28;20044;-80
2022/04/15 09:00:13;;;;;;;7.07;4.28;;;13.60;99.90;;;;;;5089775;28;20061;-80
2022/04/15 09:02:38;;;;;;;8.50;3.85;;;13.90;99.90;;;;;;5073545;28;20050;-81
2022/04/15 09:05:05;;;;;;;7.07;3.70;;;14.00;99.90;;;;;;5070346;28;20063;-81
2022/04/15 09:07:33;;;;;;;6.18;3.85;;;14.00;99.90;;;;;;5064298;28;20390;-78
2022/04/15 09:10:01;;;;;;;9.40;3.95;;;14.00;99.90;;;;;;5085519;28;20048;-74
2022/04/15 09:12:31;;;;;;;8.20;4.05;;;14.60;99.90;;;;;;5075207;28;20047;-76
2022/04/15 09:15:08;;;;;;;6.65;3.55;;;15.10;99.90;;;;;;5074319;28;20040;-77
2022/04/15 09:17:35;;;;;;;6.80;3.85;;;15.90;99.90;;;;;;5074916;28;20175;-77
2022/04/15 09:20:05;;;;;;;5.88;3.38;;;16.60;99.90;;;;;;5070874;28;20055;-78
2022/04/15 09:22:31;;;;;;;10.32;4.15;;;16.30;99.90;;;;;;5065071;28;20130;-75
2022/04/15 09:24:58;;;;;;;8.18;4.15;;;16.00;99.90;;;;;;5065612;28;20452;-78
2022/04/15 09:27:24;;;;;;;7.60;4.25;;;16.50;99.90;;;;;;5067118;28;20059;-75
2022/04/15 09:29:54;;;;;;;6.65;4.28;;;17.80;99.90;;;;;;5091117;28;20646;-74
2022/04/15 09:32:22;;;;;;;5.55;3.90;;;18.80;99.90;;;;;;5092909;28;20036;-74
2022/04/15 09:34:59;;;;;;;7.72;4.10;;;19.30;97.70;;;;;;5076752;28;20123;-80
2022/04/15 09:37:38;;;;;;;8.27;4.10;;;19.80;97.30;;;;;;5072313;28;20487;-76
2022/04/15 09:40:14;;;;;;;5.70;3.50;;;20.70;96.80;;;;;;5089741;28;20036;-73
2022/04/15 09:42:47;;;;;;;5.63;3.10;;;21.30;95.30;;;;;;5073343;28;20364;-72
2022/04/15 09:45:19;;;;;;;5.78;3.38;;;20.80;92.10;;;;;;5090192;28;20070;-73
2022/04/15 09:47:53;;;;;;;4.03;2.70;;;20.70;92.80;;;;;;5095284;28;20063;-82
2022/04/15 09:50:34;;;;;;;3.38;2.45;;;20.60;90.90;;;;;;5093801;28;20055;-76
2022/04/15 09:53:23;;;;;;;6.20;3.35;;;21.00;91.80;;;;;;5092566;28;20032;-75
2022/04/15 09:55:52;;;;;;;5.88;3.35;;;21.10;92.30;;;;;;5086396;28;20044;-88
2022/04/15 09:58:28;;;;;;;6.55;3.35;;;21.00;92.70;;;;;;5065053;28;20098;-74
2022/04/15 10:00:58;;;;;;;5.15;3.17;;;20.90;91.60;;;;;;5103862;28;20502;-76
2022/04/15 10:03:26;;;;;;;4.75;2.80;;;20.10;91.90;;;;;;5075890;28;20070;-76
2022/04/15 10:05:57;;;;;;;4.53;3.30;;;19.10;93.00;;;;;;5096395;28;20407;-77
2022/04/15 10:08:27;;;;;;;4.65;2.90;;;18.30;93.40;;;;;;5085169;28;20077;-72
2022/04/15 10:10:53;;;;;;;4.45;2.72;;;17.50;94.30;;;;;;5089099;28;20574;-73
2022/04/15 10:13:26;;;;;;;5.35;3.35;;;16.90;95.90;;;;;;5078294;28;20051;-76
2022/04/15 10:15:53;;;;;;;5.35;3.45;;;16.40;96.70;;;;;;5077518;28;20051;-79
2022/04/15 10:18:20;;;;;;;6.85;3.10;;;15.90;97.20;;;;;;5072948;28;20060;-76
2022/04/15 10:20:45;;;;;;;4.93;3.42;;;16.60;98.60;;;;;;5088537;28;20040;-71
2022/04/15 10:23:12;;;;;;;4.75;3.17;;;15.60;98.70;;;;;;5066430;28;20561;-75
2022/04/15 10:25:42;;;;;;;4.72;3.10;;;15.50;98.10;;;;;;5070749;28;20048;-79
2022/04/15 10:28:16;;;;;;;4.68;3.10;;;15.80;98.10;;;;;;5070160;28;20117;-71
2022/04/15 10:31:11;;;;;;;5.07;3.58;;;16.10;98.40;;;;;;5095512;28;20051;-77
2022/04/15 10:33:39;;;;;;;4.15;2.60;;;16.40;98.20;;;;;;5084238;28;20101;-74
2022/04/15 10:36:16;;;;;;;4.05;2.85;;;17.60;98.20;;;;;;5095983;28;20066;-74
2022/04/15 10:39:03;;;;;;;4.97;3.17;;;19.10;95.10;;;;;;5091116;28;20135;-74
2022/04/15 10:41:42;;;;;;;4.53;2.58;;;19.60;93.70;;;;;;5098388;28;20047;-74
2022/04/15 10:44:11;;;;;;;5.15;2.90;;;19.50;93.00;;;;;;5097303;28;20201;-74
2022/04/15 10:46:37;;;;;;;4.50;2.95;;;20.30;93.70;;;;;;5109156;28;20577;-76
2022/04/15 10:49:24;;;;;;;4.72;2.72;;;20.70;91.10;;;;;;5107897;28;20061;-73
2022/04/15 10:51:59;;;;;;;4.97;3.10;;;20.20;91.20;;;;;;5091147;28;20058;-74
2022/04/15 10:54:36;;;;;;;11.38;3.38;;;20.30;90.40;;;;;;5099467;28;20071;-75
2022/04/15 10:57:17;;;;;;;5.82;2.95;;;21.00;90.40;;;;;;5066313;28;20069;-77
2022/04/15 11:02:41;;;;;;;4.43;3.20;;;20.30;88.00;;;;;;5084234;28;20539;-76
2022/04/15 11:05:11;;;;;;;4.45;3.15;;;19.10;87.90;;;;;;5098093;28;20826;-76
2022/04/15 11:08:15;;;;;;;4.82;3.00;;;19.70;92.10;;;;;;5101417;28;20043;-75
2022/04/15 11:10:55;;;;;;;6.35;3.40;;;19.70;91.40;;;;;;5081513;28;20075;-75
2022/04/15 11:13:30;;;;;;;6.40;3.90;;;19.80;91.50;;;;;;5077287;28;20052;-75
2022/04/15 11:16:11;;;;;;;5.95;3.58;;;19.50;91.40;;;;;;5116652;27;20040;-76
2022/04/15 11:18:54;;;;;;;5.88;3.90;;;18.80;92.40;;;;;;5108635;27;20043;-74
2022/04/15 11:21:21;;;;;;;4.20;3.05;;;18.10;92.40;;;;;;5097532;28;20051;-75
2022/04/15 11:23:54;;;;;;;5.18;3.60;;;17.40;94.10;;;;;;5108141;27;20062;-71
2022/04/15 11:26:21;;;;;;;6.60;4.30;;;17.20;94.60;;;;;;5109732;28;20626;-75
2022/04/15 11:28:50;;;;;;;7.13;4.00;;;17.30;95.70;;;;;;5092777;28;20080;-75
2022/04/15 11:31:23;;;;;;;5.85;4.00;;;17.20;96.90;;;;;;5110910;28;20047;-74
2022/04/15 11:33:49;;;;;;;6.05;3.90;;;17.20;96.60;;;;;;5087759;28;20102;-76
2022/04/15 11:36:15;;;;;;;7.22;3.97;;;17.10;96.70;;;;;;5100056;28;20070;-75
2022/04/15 11:38:43;;;;;;;6.95;4.13;;;16.70;96.60;;;;;;5109767;28;20058;-76
2022/04/15 11:41:09;;;;;;;5.70;3.90;;;16.50;97.80;;;;;;5097299;28;20086;-71
2022/04/15 11:43:35;;;;;;;6.35;4.13;;;16.30;98.00;;;;;;5105510;28;20076;-73
2022/04/15 11:46:00;;;;;;;7.13;4.20;;;16.00;98.00;;;;;;5091990;28;20051;-75
2022/04/15 11:48:26;;;;;;;6.35;3.97;;;16.10;98.80;;;;;;5087893;28;20047;-76
2022/04/15 11:50:54;;;;;;;8.07;4.00;;;15.80;98.30;;;;;;5084591;28;20414;-75
2022/04/15 11:53:21;;;;;;;8.63;4.57;;;15.60;99.10;;;;;;5110835;28;20050;-75
2022/04/15 11:55:58;;;;;;;7.40;4.28;;;15.40;99.90;;;;;;5091585;28;20043;-76
2022/04/15 11:58:30;;;;;;;7.32;4.38;;;15.30;99.90;;;;;;5111274;27;20386;-76
2022/04/15 12:00:58;;;;;;;7.10;3.67;;;15.20;99.90;;;;;;5088543;28;20082;-77
2022/04/15 12:03:25;;;;;;;7.88;4.18;;;15.10;99.90;;;;;;5091177;28;20054;-76
2022/04/15 12:05:52;;;;;;;8.80;4.53;;;14.90;99.90;;;;;;5110770;28;20044;-75
2022/04/15 12:08:22;;;;;;;7.15;4.38;;;14.70;99.90;;;;;;5088575;28;20055;-73
2022/04/15 12:10:49;;;;;;;7.43;4.10;;;14.80;99.90;;;;;;5109264;28;20075;-77
2022/04/15 12:13:17;;;;;;;6.30;3.90;;;15.00;99.90;;;;;;5090935;28;20050;-75
2022/04/15 12:15:44;;;;;;;5.88;4.20;;;15.20;99.90;;;;;;5111182;27;20051;-79
2022/04/15 12:18:10;;;;;;;7.80;3.80;;;15.00;99.90;;;;;;5087805;28;20047;-77
2022/04/15 12:20:38;;;;;;;9.70;4.63;;;14.80;99.90;;;;;;5099448;28;20051;-77
2022/04/15 12:23:08;;;;;;;7.40;4.70;;;14.70;99.90;;;;;;5110260;28;20125;-78
2022/04/15 12:31:02;;;;;;;7.50;4.25;;;14.60;99.90;;;;;;5099423;28;20051;-76
2022/04/15 12:33:28;;;;;;;6.72;4.40;;;14.30;99.90;;;;;;5105286;28;20113;-76
2022/04/15 12:36:02;;;;;;;6.18;4.00;;;14.20;99.90;;;;;;5071343;28;20039;-74
2022/04/15 12:38:29;;;;;;;8.65;4.70;;;14.60;99.90;;;;;;5089315;28;20495;-75
2022/04/15 12:41:10;;;;;;;7.18;4.20;;;14.60;99.90;;;;;;5089322;28;20055;-75
2022/04/15 12:43:35;;;;;;;7.90;4.72;;;14.80;99.90;;;;;;5089827;28;20056;-77
2022/04/15 12:46:01;;;;;;;8.80;5.38;;;14.50;99.90;;;;;;5061902;28;20392;-75
2022/04/15 12:48:28;;;;;;;9.63;4.68;;;14.50;99.90;;;;;;5063567;28;20530;-75
2022/04/15 12:50:58;;;;;;;7.28;4.85;;;14.50;99.90;;;;;;5090376;28;20040;-75
2022/04/15 12:53:26;;;;;;;8.63;4.47;;;14.50;99.90;;;;;;5088030;28;20055;-74
2022/04/15 12:55:53;;;;;;;8.65;4.50;;;14.50;99.90;;;;;;5089872;28;20036;-73
2022/04/15 12:58:28;;;;;;;8.43;5.03;;;14.50;99.90;;;;;;5088158;28;20128;-72
2022/04/15 13:00:57;;;;;;;14.23;5.63;;;14.60;99.90;;;;;;5069213;28;20048;-73
2022/04/15 13:03:30;;;;;;;11.80;5.93;;;14.50;99.90;;;;;;5086811;28;20048;-73
2022/04/15 13:05:57;;;;;;;8.27;5.43;;;14.20;99.90;;;;;;5083544;28;20082;-74
2022/04/15 13:08:24;;;;;;;9.82;5.40;;;14.40;99.90;;;;;;5057311;28;20056;-72
2022/04/15 13:10:51;;;;;;;8.68;5.13;;;14.50;99.90;;;;;;5068970;28;20055;-73
2022/04/15 13:13:21;;;;;;;7.35;4.95;;;14.60;99.90;;;;;;5084121;28;20059;-73
2022/04/15 13:15:50;;;;;;;10.10;4.90;;;14.60;99.90;;;;;;5080312;28;20411;-72
2022/04/15 13:18:19;;;;;;;6.72;4.15;;;14.50;99.90;;;;;;5082011;28;20097;-72
2022/04/15 13:20:47;;;;;;;6.63;4.47;;;14.40;99.90;;;;;;5085636;28;20074;-72
2022/04/15 13:23:13;;;;;;;8.18;5.22;;;14.40;99.90;;;;;;5084010;28;20074;-74